createdAt,value
2023-05-14T00:01:23.309Z,101415.53
2023-05-14T00:03:50.450Z,101425.22
2023-05-14T00:06:17.614Z,101423.44
2023-05-14T00:08:44.804Z,101417.25
2023-05-14T00:11:11.952Z,101419.41
2023-05-14T00:13:39.070Z,101423.78
2023-05-14T00:16:06.393Z,101426.41
2023-05-14T00:18:33.726Z,101423.94
2023-05-14T00:21:00.877Z,101423.00
2023-05-14T00:23:28.052Z,101416.00
2023-05-14T00:25:55.356Z,101416.19
2023-05-14T00:28:22.556Z,101412.31
2023-05-14T00:30:49.712Z,101414.41
2023-05-14T00:33:16.872Z,101411.09
2023-05-14T00:35:44.041Z,101414.75
2023-05-14T00:38:16.723Z,101416.06
2023-05-14T00:40:45.896Z,101416.00
2023-05-14T00:43:13.025Z,101400.09
2023-05-14T00:45:40.392Z,101409.44
2023-05-14T00:48:07.625Z,101402.97
2023-05-14T00:50:34.957Z,101408.28
2023-05-14T00:53:02.324Z,101407.50
2023-05-14T00:55:30.667Z,101404.69
2023-05-14T00:57:59.379Z,101416.69
2023-05-14T01:00:26.698Z,101414.19
2023-05-14T01:02:53.886Z,101405.28
2023-05-14T01:05:26.429Z,101416.47
2023-05-14T01:08:18.450Z,101412.53
2023-05-14T01:10:52.780Z,101420.44
2023-05-14T01:13:58.009Z,101415.72
2023-05-14T01:16:27.911Z,101402.03
2023-05-14T01:18:59.238Z,101407.44
2023-05-14T01:21:43.346Z,101410.97
2023-05-14T01:24:10.524Z,101416.16
2023-05-14T01:26:37.779Z,101414.72
2023-05-14T01:29:27.570Z,101412.25
2023-05-14T01:31:57.388Z,101420.63
2023-05-14T01:34:28.255Z,101418.59
2023-05-14T01:36:57.632Z,101423.50
2023-05-14T01:39:27.139Z,101411.34
2023-05-14T01:41:55.574Z,101414.88
2023-05-14T01:44:23.027Z,101417.81
2023-05-14T01:46:50.238Z,101407.47
2023-05-14T01:49:18.574Z,101412.38
2023-05-14T01:51:45.773Z,101421.81
2023-05-14T01:54:12.994Z,101408.22
2023-05-14T01:56:40.870Z,101409.03
2023-05-14T01:59:07.990Z,101414.25
2023-05-14T02:01:35.181Z,101410.16
2023-05-14T02:04:02.359Z,101409.78
2023-05-14T02:06:29.593Z,101413.97
2023-05-14T02:08:56.735Z,101409.84
2023-05-14T02:11:23.971Z,101412.81
2023-05-14T02:13:51.149Z,101415.81
2023-05-14T02:16:19.234Z,101407.06
2023-05-14T02:18:46.478Z,101403.22
2023-05-14T02:21:13.644Z,101401.13
2023-05-14T02:23:42.015Z,101406.34
2023-05-14T02:26:10.568Z,101411.78
2023-05-14T02:28:38.028Z,101407.31
2023-05-14T02:31:05.178Z,101411.91
2023-05-14T02:33:32.589Z,101406.88
2023-05-14T02:35:59.769Z,101404.34
2023-05-14T02:38:27.159Z,101410.03
2023-05-14T02:40:54.314Z,101402.66
2023-05-14T02:43:21.567Z,101403.56
2023-05-14T02:45:48.759Z,101403.31
2023-05-14T02:48:15.905Z,101396.44
2023-05-14T02:50:43.056Z,101396.53
2023-05-14T02:53:10.254Z,101400.66
2023-05-14T02:55:37.422Z,101402.13
2023-05-14T02:58:04.607Z,101406.31
2023-05-14T03:00:31.794Z,101411.59
2023-05-14T03:02:59.413Z,101398.00
2023-05-14T03:05:27.022Z,101402.44
2023-05-14T03:07:54.854Z,101407.94
2023-05-14T03:10:22.183Z,101398.84
2023-05-14T03:12:49.588Z,101406.75
2023-05-14T03:15:16.807Z,101398.56
2023-05-14T03:17:44.017Z,101405.13
2023-05-14T03:20:12.785Z,101410.47
2023-05-14T03:22:40.387Z,101405.41
2023-05-14T03:25:08.092Z,101389.47
2023-05-14T03:27:35.541Z,101397.53
2023-05-14T03:30:02.862Z,101393.91
2023-05-14T03:32:30.418Z,101396.59
2023-05-14T03:34:57.609Z,101396.91
2023-05-14T03:37:24.761Z,101387.47
2023-05-14T03:39:51.910Z,101390.78
2023-05-14T03:42:19.070Z,101391.91
2023-05-14T03:44:46.262Z,101392.97
2023-05-14T03:47:13.410Z,101389.56
2023-05-14T03:49:40.661Z,101392.13
2023-05-14T03:52:07.866Z,101393.47
2023-05-14T03:54:35.104Z,101394.03
2023-05-14T03:57:02.276Z,101391.78
2023-05-14T03:59:29.407Z,101391.75
2023-05-14T04:01:56.726Z,101383.50
2023-05-14T04:04:23.946Z,101394.13
2023-05-14T04:06:51.121Z,101390.22
2023-05-14T04:09:18.587Z,101390.41
2023-05-14T04:11:46.184Z,101393.56
2023-05-14T04:14:13.335Z,101387.38
2023-05-14T04:16:40.669Z,101388.00
2023-05-14T04:19:08.085Z,101385.97
2023-05-14T04:21:35.391Z,101387.00
2023-05-14T04:24:02.572Z,101386.94
2023-05-14T04:26:29.735Z,101396.69
2023-05-14T04:28:56.873Z,101386.84
2023-05-14T04:31:24.116Z,101380.06
2023-05-14T04:33:51.348Z,101392.47
2023-05-14T04:36:18.612Z,101381.72
2023-05-14T04:38:45.742Z,101383.53
2023-05-14T04:41:12.914Z,101385.44
2023-05-14T04:43:40.265Z,101385.75
2023-05-14T04:46:07.525Z,101383.53
2023-05-14T04:48:34.845Z,101383.56
2023-05-14T04:51:02.037Z,101378.88
2023-05-14T04:53:29.321Z,101381.78
2023-05-14T04:55:56.518Z,101371.03
2023-05-14T04:58:24.123Z,101374.31
2023-05-14T05:00:51.339Z,101368.69
2023-05-14T05:03:18.632Z,101371.66
2023-05-14T05:05:45.927Z,101371.66
2023-05-14T05:08:13.072Z,101372.97
2023-05-14T05:10:40.198Z,101371.81
2023-05-14T05:13:07.450Z,101374.16
2023-05-14T05:15:34.622Z,101369.34
2023-05-14T05:18:01.792Z,101375.06
2023-05-14T05:20:29.106Z,101376.13
2023-05-14T05:22:56.282Z,101378.00
2023-05-14T05:25:23.546Z,101367.25
2023-05-14T05:27:50.746Z,101381.88
2023-05-14T05:30:18.057Z,101368.09
2023-05-14T05:32:45.683Z,101372.41
2023-05-14T05:35:12.818Z,101367.28
2023-05-14T05:37:39.978Z,101366.84
2023-05-14T05:40:09.079Z,101371.56
2023-05-14T05:42:36.297Z,101367.81
2023-05-14T05:45:03.867Z,101367.34
2023-05-14T05:47:31.137Z,101366.56
2023-05-14T05:49:58.348Z,101363.88
2023-05-14T05:52:25.722Z,101352.09
2023-05-14T05:54:52.889Z,101354.66
2023-05-14T05:57:20.037Z,101359.91
2023-05-14T05:59:47.200Z,101342.75
2023-05-14T06:02:14.418Z,101349.13
2023-05-14T06:04:41.576Z,101354.28
2023-05-14T06:07:08.708Z,101351.97
2023-05-14T06:09:35.831Z,101358.00
2023-05-14T06:12:03.050Z,101358.09
2023-05-14T06:14:30.195Z,101359.72
2023-05-14T06:16:58.618Z,101356.78
2023-05-14T06:19:25.861Z,101360.84
2023-05-14T06:21:53.010Z,101361.81
2023-05-14T06:24:20.336Z,101371.75
2023-05-14T06:26:48.774Z,101370.72
2023-05-14T06:29:15.973Z,101369.09
2023-05-14T06:31:43.550Z,101370.53
2023-05-14T06:34:11.309Z,101373.28
2023-05-14T06:36:38.489Z,101362.69
2023-05-14T06:39:05.993Z,101363.94
2023-05-14T06:41:33.174Z,101357.16
2023-05-14T06:44:00.414Z,101360.63
2023-05-14T06:46:27.634Z,101363.44
2023-05-14T06:48:55.663Z,101365.63
2023-05-14T06:51:23.871Z,101356.75
2023-05-14T06:53:52.276Z,101352.22
2023-05-14T06:56:19.634Z,101359.41
2023-05-14T06:58:46.867Z,101359.69
2023-05-14T07:01:14.175Z,101349.97
2023-05-14T07:03:41.357Z,101351.28
2023-05-14T07:06:08.674Z,101355.50
2023-05-14T07:08:36.118Z,101348.44
2023-05-14T07:11:03.494Z,101342.69
2023-05-14T07:13:30.703Z,101334.38
2023-05-14T07:15:57.836Z,101333.44
2023-05-14T07:18:25.083Z,101329.38
2023-05-14T07:20:52.327Z,101325.72
2023-05-14T07:23:20.108Z,101327.63
2023-05-14T07:25:47.322Z,101324.56
2023-05-14T07:28:14.556Z,101315.63
2023-05-14T07:30:41.680Z,101310.56
2023-05-14T07:33:08.892Z,101312.28
2023-05-14T07:35:36.248Z,101300.22
2023-05-14T07:38:05.586Z,101294.75
2023-05-14T07:40:32.853Z,101295.53
2023-05-14T07:43:00.030Z,101283.56
2023-05-14T07:45:27.238Z,101285.25
2023-05-14T07:47:54.523Z,101282.78
2023-05-14T07:50:22.947Z,101278.72
2023-05-14T07:52:50.209Z,101271.88
2023-05-14T07:55:17.344Z,101267.88
2023-05-14T07:57:44.455Z,101268.00
2023-05-14T08:00:12.349Z,101266.28
2023-05-14T08:02:39.726Z,101266.41
2023-05-14T08:05:07.561Z,101254.50
2023-05-14T08:07:34.777Z,101269.75
2023-05-14T08:10:02.516Z,101257.88
2023-05-14T08:12:30.226Z,101247.66
2023-05-14T08:14:57.358Z,101249.28
2023-05-14T08:17:24.545Z,101245.44
2023-05-14T08:19:53.640Z,101236.13
2023-05-14T08:22:21.690Z,101241.00
2023-05-14T08:24:48.905Z,101242.00
2023-05-14T08:27:16.593Z,101238.41
2023-05-14T08:29:43.791Z,101233.53
2023-05-14T08:32:19.801Z,101237.84
2023-05-14T08:34:50.803Z,101227.91
2023-05-14T08:37:18.067Z,101223.63
2023-05-14T08:39:45.237Z,101223.75
2023-05-14T08:42:13.683Z,101223.38
2023-05-14T08:44:50.261Z,101208.00
2023-05-14T08:47:21.577Z,101220.72
2023-05-14T08:49:58.455Z,101218.66
2023-05-14T08:52:25.943Z,101213.56
2023-05-14T08:54:53.953Z,101211.00
2023-05-14T08:57:24.828Z,101216.13
2023-05-14T08:59:53.766Z,101221.25
2023-05-14T09:02:25.145Z,101218.72
2023-05-14T09:04:58.162Z,101207.63
2023-05-14T09:07:26.310Z,101209.31
2023-05-14T09:09:54.376Z,101211.88
2023-05-14T09:12:22.204Z,101210.19
2023-05-14T09:14:50.945Z,101205.88
2023-05-14T09:17:19.482Z,101208.38
2023-05-14T09:19:52.884Z,101194.88
2023-05-14T09:22:21.022Z,101192.28
2023-05-14T09:25:12.068Z,101208.28
2023-05-14T09:27:39.312Z,101198.13
2023-05-14T09:30:12.922Z,101202.47
2023-05-14T09:32:44.461Z,101192.25
2023-05-14T09:35:23.370Z,101189.75
2023-05-14T09:37:53.615Z,101189.75
2023-05-14T09:40:24.317Z,101191.47
2023-05-14T09:42:51.894Z,101182.09
2023-05-14T09:45:19.159Z,101163.31
2023-05-14T09:47:46.422Z,101159.91
2023-05-14T09:50:13.742Z,101159.94
2023-05-14T09:52:41.009Z,101157.34
2023-05-14T09:55:08.704Z,101156.31
2023-05-14T09:57:35.894Z,101163.03
2023-05-14T10:00:03.873Z,101140.72
2023-05-14T10:02:37.726Z,101142.97
2023-05-14T10:05:07.181Z,101141.19
2023-05-14T10:07:42.732Z,101132.72
2023-05-14T10:10:18.450Z,101131.94
2023-05-14T10:12:56.922Z,101131.06
2023-05-14T10:15:33.507Z,101123.50
2023-05-14T10:18:10.212Z,101127.06
2023-05-14T10:20:41.205Z,101126.38
2023-05-14T10:23:08.810Z,101114.00
2023-05-14T10:25:37.482Z,101099.88
2023-05-14T10:28:06.145Z,101101.38
2023-05-14T10:30:33.265Z,101107.06
2023-05-14T10:33:13.545Z,101102.28
2023-05-14T10:36:01.897Z,101097.44
2023-05-14T10:38:32.848Z,101103.56
2023-05-14T10:41:21.491Z,101092.38
2023-05-14T10:43:49.890Z,101089.28
2023-05-14T10:46:17.161Z,101090.66
2023-05-14T10:48:45.260Z,101091.06
2023-05-14T10:51:12.830Z,101084.84
2023-05-14T10:53:42.982Z,101077.88
2023-05-14T10:56:14.602Z,101098.25
2023-05-14T10:58:45.850Z,101096.47
2023-05-14T11:01:14.266Z,101088.03
2023-05-14T11:03:47.083Z,101080.88
2023-05-14T11:06:15.876Z,101083.00
2023-05-14T11:08:44.416Z,101072.78
2023-05-14T11:11:11.627Z,101065.72
2023-05-14T11:13:38.809Z,101059.41
2023-05-14T11:18:38.616Z,101073.91
2023-05-14T11:21:05.840Z,101070.34
2023-05-14T11:23:32.980Z,101053.97
2023-05-14T11:26:00.233Z,101056.31
2023-05-14T11:28:27.611Z,101059.63
2023-05-14T11:30:54.754Z,101046.97
2023-05-14T11:33:21.879Z,101040.38
2023-05-14T11:35:49.027Z,101039.66
2023-05-14T11:38:21.150Z,101046.69
2023-05-14T11:40:56.719Z,101034.84
2023-05-14T11:43:26.149Z,101038.06
2023-05-14T11:45:54.595Z,101033.59
2023-05-14T11:48:24.010Z,101026.50
2023-05-14T11:50:52.943Z,101016.72
2023-05-14T11:53:27.207Z,101020.19
2023-05-14T11:55:55.068Z,101014.34
2023-05-14T11:58:22.261Z,101014.44
2023-05-14T12:00:55.452Z,101021.19
2023-05-14T12:03:25.993Z,101016.97
2023-05-14T12:06:01.423Z,101025.47
2023-05-14T12:08:31.503Z,101022.91
2023-05-14T12:11:00.910Z,101018.59
2023-05-14T12:13:30.716Z,101016.88
2023-05-14T12:16:02.458Z,101018.53
2023-05-14T12:18:32.403Z,101024.34
2023-05-14T12:21:04.403Z,101014.28
2023-05-14T12:23:32.801Z,101011.75
2023-05-14T12:26:09.382Z,101014.25
2023-05-14T12:28:43.250Z,101015.97
2023-05-14T12:31:10.857Z,101006.66
2023-05-14T12:33:38.032Z,101011.69
2023-05-14T12:36:20.282Z,101013.31
2023-05-14T12:39:03.811Z,101011.69
2023-05-14T12:41:31.290Z,100993.94
2023-05-14T12:43:59.954Z,101000.69
2023-05-14T12:46:27.953Z,100990.44
2023-05-14T12:48:55.699Z,100997.28
2023-05-14T12:51:23.343Z,100993.84
2023-05-14T12:53:51.597Z,100990.44
2023-05-14T12:56:18.882Z,100992.81
2023-05-14T12:58:47.496Z,100982.78
2023-05-14T13:01:14.748Z,100985.31
2023-05-14T13:03:42.110Z,100982.63
2023-05-14T13:06:09.394Z,100981.78
2023-05-14T13:08:36.574Z,100971.63
2023-05-14T13:11:03.814Z,100980.06
2023-05-14T13:13:30.960Z,100971.63
2023-05-14T13:15:58.129Z,100975.03
2023-05-14T13:18:26.537Z,100964.16
2023-05-14T13:20:54.099Z,100962.47
2023-05-14T13:23:21.250Z,100979.38
2023-05-14T13:25:50.045Z,100955.66
2023-05-14T13:28:17.319Z,100954.81
2023-05-14T13:31:05.885Z,100970.75
2023-05-14T13:33:38.662Z,100966.59
2023-05-14T13:36:05.986Z,100960.63
2023-05-14T13:38:33.024Z,100964.03
2023-05-14T13:41:02.668Z,100955.72
2023-05-14T13:43:34.588Z,100948.91
2023-05-14T13:46:04.793Z,100950.63
2023-05-14T13:48:32.839Z,100944.66
2023-05-14T13:51:00.046Z,100933.59
2023-05-14T13:53:27.260Z,100944.66
2023-05-14T13:55:58.437Z,100933.63
2023-05-14T13:58:26.070Z,100931.06
2023-05-14T14:00:54.178Z,100929.34
2023-05-14T14:03:21.453Z,100923.38
2023-05-14T14:05:48.715Z,100921.63
2023-05-14T14:08:23.422Z,100919.09
2023-05-14T14:10:52.419Z,100912.38
2023-05-14T14:13:21.163Z,100902.13
2023-05-14T14:15:49.033Z,100903.88
2023-05-14T14:18:16.391Z,100908.13
2023-05-14T14:20:43.859Z,100897.03
2023-05-14T14:23:11.027Z,100902.94
2023-05-14T14:25:38.161Z,100899.50
2023-05-14T14:28:05.395Z,100897.84
2023-05-14T14:30:32.624Z,100904.53
2023-05-14T14:33:01.196Z,100896.16
2023-05-14T14:35:28.667Z,100895.31
2023-05-14T14:37:55.891Z,100890.09
2023-05-14T14:40:23.999Z,100897.66
2023-05-14T14:42:51.276Z,100890.94
2023-05-14T14:45:18.423Z,100885.84
2023-05-14T14:47:46.968Z,100892.66
2023-05-14T14:50:14.216Z,100886.69
2023-05-14T14:52:47.800Z,100885.78
2023-05-14T14:55:15.036Z,100879.00
2023-05-14T14:57:42.255Z,100876.50
2023-05-14T15:00:10.303Z,100874.75
2023-05-14T15:02:41.788Z,100879.06
2023-05-14T15:05:09.578Z,100876.44
2023-05-14T15:07:36.771Z,100888.31
2023-05-14T15:10:04.640Z,100875.59
2023-05-14T15:12:31.832Z,100867.91
2023-05-14T15:14:58.964Z,100867.94
2023-05-14T15:17:26.521Z,100872.13
2023-05-14T15:19:53.712Z,100871.38
2023-05-14T15:22:21.493Z,100867.91
2023-05-14T15:24:48.660Z,100867.03
2023-05-14T15:27:16.206Z,100862.00
2023-05-14T15:29:43.398Z,100861.19
2023-05-14T15:32:10.815Z,100853.59
2023-05-14T15:34:38.007Z,100845.13
2023-05-14T15:37:05.381Z,100846.81
2023-05-14T15:39:32.538Z,100851.09
2023-05-14T15:41:59.828Z,100863.69
2023-05-14T15:44:27.129Z,100849.34
2023-05-14T15:46:54.353Z,100854.28
2023-05-14T15:49:21.723Z,100847.56
2023-05-14T15:51:48.980Z,100853.25
2023-05-14T15:54:16.168Z,100841.53
2023-05-14T15:56:43.340Z,100846.66
2023-05-14T15:59:10.571Z,100842.41
2023-05-14T16:01:37.929Z,100844.94
2023-05-14T16:04:05.168Z,100845.81
2023-05-14T16:06:34.166Z,100834.81
2023-05-14T16:09:02.857Z,100838.97
2023-05-14T16:11:30.288Z,100836.44
2023-05-14T16:13:58.350Z,100827.97
2023-05-14T16:16:25.500Z,100831.19
2023-05-14T16:18:52.716Z,100828.81
2023-05-14T16:21:19.883Z,100815.25
2023-05-14T16:23:47.119Z,100815.28
2023-05-14T16:26:14.344Z,100817.84
2023-05-14T16:28:42.694Z,100812.75
2023-05-14T16:31:09.858Z,100819.41
2023-05-14T16:33:37.069Z,100826.16
2023-05-14T16:36:04.365Z,100822.75
2023-05-14T16:38:31.547Z,100815.22
2023-05-14T16:40:58.704Z,100814.31
2023-05-14T16:43:26.053Z,100804.22
2023-05-14T16:45:53.221Z,100800.81
2023-05-14T16:48:20.493Z,100799.13
2023-05-14T16:50:47.629Z,100799.13
2023-05-14T16:53:14.755Z,100812.59
2023-05-14T16:55:41.883Z,100806.69
2023-05-14T16:58:08.997Z,100803.25
2023-05-14T17:00:36.187Z,100800.72
2023-05-14T17:03:03.346Z,100793.22
2023-05-14T17:05:30.617Z,100804.25
2023-05-14T17:07:57.933Z,100795.66
2023-05-14T17:10:26.336Z,100796.63
2023-05-14T17:12:53.682Z,100791.50
2023-05-14T17:15:20.851Z,100795.66
2023-05-14T17:17:47.995Z,100790.63
2023-05-14T17:20:16.839Z,100788.94
2023-05-14T17:22:44.327Z,100790.56
2023-05-14T17:25:11.479Z,100788.88
2023-05-14T17:27:38.677Z,100787.97
2023-05-14T17:30:06.758Z,100791.38
2023-05-14T17:32:33.990Z,100793.78
2023-05-14T17:35:01.190Z,100791.31
2023-05-14T17:37:28.569Z,100788.66
2023-05-14T17:39:55.699Z,100793.75
2023-05-14T17:42:22.809Z,100796.19
2023-05-14T17:44:50.012Z,100797.84
2023-05-14T17:47:20.087Z,100795.25
2023-05-14T17:49:51.106Z,100802.09
2023-05-14T17:52:18.370Z,100797.75
2023-05-14T17:54:45.521Z,100801.97
2023-05-14T17:57:12.706Z,100803.69
2023-05-14T17:59:40.145Z,100808.69
2023-05-14T18:02:07.817Z,100811.19
2023-05-14T18:04:34.952Z,100809.53
2023-05-14T18:07:03.172Z,100802.59
2023-05-14T18:09:30.298Z,100801.78
2023-05-14T18:11:57.421Z,100801.66
2023-05-14T18:14:24.563Z,100810.38
2023-05-14T18:16:51.841Z,100810.50
2023-05-14T18:19:19.304Z,100803.78
2023-05-14T18:21:48.086Z,100816.19
2023-05-14T18:24:15.280Z,100818.72
2023-05-14T18:26:42.558Z,100820.38
2023-05-14T18:29:09.704Z,100818.59
2023-05-14T18:31:36.847Z,100823.66
2023-05-14T18:34:04.008Z,100821.97
2023-05-14T18:36:31.206Z,100828.53
2023-05-14T18:38:58.323Z,100826.06
2023-05-14T18:41:25.590Z,100826.97
2023-05-14T18:43:52.766Z,100836.06
2023-05-14T18:46:20.008Z,100819.13
2023-05-14T18:48:47.279Z,100819.19
2023-05-14T18:51:14.453Z,100825.88
2023-05-14T18:53:41.600Z,100833.44
2023-05-14T18:56:09.565Z,100833.41
2023-05-14T18:58:36.783Z,100833.31
2023-05-14T19:01:03.975Z,100842.59
2023-05-14T19:03:31.477Z,100835.66
2023-05-14T19:05:58.790Z,100839.94
2023-05-14T19:08:26.077Z,100847.16
2023-05-14T19:10:53.328Z,100839.22
2023-05-14T19:13:20.623Z,100852.34
2023-05-14T19:15:47.829Z,100844.81
2023-05-14T19:18:15.293Z,100837.34
2023-05-14T19:20:42.627Z,100844.59
2023-05-14T19:23:09.781Z,100843.22
2023-05-14T19:25:37.167Z,100843.38
2023-05-14T19:28:04.989Z,100850.88
2023-05-14T19:30:32.198Z,100839.22
2023-05-14T19:32:59.592Z,100844.19
2023-05-14T19:35:27.050Z,100843.91
2023-05-14T19:37:54.303Z,100833.44
2023-05-14T19:40:21.557Z,100832.56
2023-05-14T19:42:48.783Z,100841.94
2023-05-14T19:45:15.948Z,100845.38
2023-05-14T19:47:43.324Z,100841.22
2023-05-14T19:50:11.214Z,100844.38
2023-05-14T19:52:38.413Z,100843.16
2023-05-14T19:55:05.756Z,100833.34
2023-05-14T19:57:33.041Z,100840.22
2023-05-14T20:00:00.289Z,100841.28
2023-05-14T20:02:27.506Z,100836.56
2023-05-14T20:04:56.629Z,100836.81
2023-05-14T20:07:25.712Z,100835.59
2023-05-14T20:09:53.082Z,100832.47
2023-05-14T20:12:20.334Z,100833.50
2023-05-14T20:14:47.478Z,100838.28
2023-05-14T20:17:14.754Z,100832.47
2023-05-14T20:19:41.941Z,100834.56
2023-05-14T20:22:09.290Z,100827.53
2023-05-14T20:24:36.524Z,100826.25
2023-05-14T20:27:03.951Z,100819.78
2023-05-14T20:29:31.103Z,100824.38
2023-05-14T20:31:58.227Z,100823.34
2023-05-14T20:34:25.453Z,100817.16
2023-05-14T20:36:52.691Z,100821.16
2023-05-14T20:39:19.967Z,100816.22
2023-05-14T20:41:47.191Z,100816.56
2023-05-14T20:44:14.378Z,100813.06
2023-05-14T20:46:41.572Z,100812.88
2023-05-14T20:49:08.781Z,100814.28
2023-05-14T20:51:35.988Z,100816.19
2023-05-14T20:54:03.150Z,100813.25
2023-05-14T20:56:30.459Z,100812.53
2023-05-14T20:58:57.606Z,100804.72
2023-05-14T21:01:25.111Z,100802.66
2023-05-14T21:03:52.384Z,100809.00
2023-05-14T21:06:19.751Z,100797.22
2023-05-14T21:08:46.861Z,100795.44
2023-05-14T21:11:14.276Z,100800.03
2023-05-14T21:13:44.073Z,100799.31
2023-05-14T21:16:12.692Z,100791.63
2023-05-14T21:18:40.039Z,100788.78
2023-05-14T21:21:07.367Z,100780.41
2023-05-14T21:23:34.737Z,100786.38
2023-05-14T21:26:02.026Z,100780.19
2023-05-14T21:28:29.294Z,100784.84
2023-05-14T21:30:56.606Z,100781.09
2023-05-14T21:33:23.984Z,100778.66
2023-05-14T21:35:51.338Z,100781.00
2023-05-14T21:38:19.077Z,100784.59
2023-05-14T21:40:46.522Z,100780.28
2023-05-14T21:43:13.961Z,100775.16
2023-05-14T21:45:43.091Z,100773.31
2023-05-14T21:48:10.394Z,100776.03
2023-05-14T21:50:37.639Z,100776.56
2023-05-14T21:53:04.782Z,100770.78
2023-05-14T21:55:32.165Z,100775.63
2023-05-14T21:57:59.609Z,100775.78
2023-05-14T22:00:26.853Z,100774.31
2023-05-14T22:02:54.136Z,100767.63
2023-05-14T22:05:22.404Z,100766.53
2023-05-14T22:07:50.050Z,100772.34
2023-05-14T22:10:17.391Z,100770.59
2023-05-14T22:12:45.763Z,100760.38
2023-05-14T22:15:13.157Z,100756.59
2023-05-14T22:17:40.348Z,100758.09
2023-05-14T22:20:10.113Z,100753.72
2023-05-14T22:22:37.808Z,100757.50
2023-05-14T22:25:05.792Z,100759.53
2023-05-14T22:27:32.967Z,100760.75
2023-05-14T22:30:00.489Z,100760.81
2023-05-14T22:32:27.646Z,100756.69
2023-05-14T22:34:55.102Z,100757.88
2023-05-14T22:37:22.285Z,100754.78
2023-05-14T22:39:49.845Z,100758.47
2023-05-14T22:42:17.066Z,100751.28
2023-05-14T22:44:44.339Z,100753.56
2023-05-14T22:47:11.581Z,100748.22
2023-05-14T22:49:40.617Z,100747.97
2023-05-14T22:52:09.055Z,100743.66
2023-05-14T22:54:36.486Z,100741.97
2023-05-14T22:57:04.246Z,100739.38
2023-05-14T22:59:31.444Z,100729.53
2023-05-14T23:01:58.655Z,100729.50
2023-05-14T23:04:26.122Z,100731.97
2023-05-14T23:06:53.383Z,100723.06
2023-05-14T23:09:20.539Z,100735.28
2023-05-14T23:11:47.956Z,100726.81
2023-05-14T23:14:15.202Z,100725.59
2023-05-14T23:16:42.335Z,100717.06
2023-05-14T23:19:09.792Z,100716.06
2023-05-14T23:21:37.135Z,100712.81
2023-05-14T23:24:04.613Z,100708.38
2023-05-14T23:26:31.906Z,100712.63
2023-05-14T23:28:59.090Z,100707.88
2023-05-14T23:31:26.313Z,100697.06
2023-05-14T23:33:53.482Z,100698.69
2023-05-14T23:36:20.730Z,100697.97
2023-05-14T23:38:48.384Z,100698.59
2023-05-14T23:41:15.589Z,100685.47
2023-05-14T23:43:42.807Z,100690.91
2023-05-14T23:46:10.247Z,100681.72
2023-05-14T23:48:37.547Z,100686.97
2023-05-14T23:51:04.685Z,100674.06
2023-05-14T23:53:31.860Z,100672.41
2023-05-14T23:56:00.248Z,100666.25
2023-05-14T23:58:29.848Z,100671.88
